Time;durP1;ratioP1;P1;durP2;ratioP2;P2;SDS_P1;SDS_P2;PMS_P1;PMS_P2;Temp;Humidity;BMP_temperature;BMP_pressure;BME280_temperature;BME280_humidity;BME280_pressure;Samples;Min_cycle;Max_cycle;Signal;HPM_P1;HPM_P2
2022/04/30 00:02:08;;;;;;;8.37;5.10;;;10.90;99.90;;;;;;5039266;28;20465;-81
2022/04/30 00:04:40;;;;;;;6.23;4.60;;;11.00;99.90;;;;;;5039109;28;20988;-80
2022/04/30 00:07:06;;;;;;;6.57;4.60;;;11.00;99.90;;;;;;5038852;28;20462;-80
2022/04/30 00:09:32;;;;;;;7.33;4.43;;;10.90;99.90;;;;;;5039396;28;20423;-80
2022/04/30 00:11:59;;;;;;;7.77;5.10;;;10.80;99.90;;;;;;5038632;28;20484;-81
2022/04/30 00:14:26;;;;;;;8.30;5.07;;;10.80;99.90;;;;;;5038453;28;20476;-80
2022/04/30 00:16:52;;;;;;;9.10;5.03;;;10.70;99.90;;;;;;5038266;28;21011;-80
2022/04/30 00:19:20;;;;;;;7.00;5.07;;;10.70;99.90;;;;;;5037637;28;20427;-80
2022/04/30 00:21:46;;;;;;;7.30;4.60;;;10.70;99.90;;;;;;5038132;28;20450;-80
2022/04/30 00:24:12;;;;;;;7.10;4.50;;;10.60;99.90;;;;;;5037497;28;20482;-80
2022/04/30 00:26:41;;;;;;;7.93;5.00;;;10.70;99.90;;;;;;5037176;28;20476;-80
2022/04/30 02:01:52;;;;;;;7.30;5.03;;;8.90;99.90;;;;;;5018703;28;20490;-90
2022/04/30 02:09:14;;;;;;;9.93;5.07;;;8.70;99.90;;;;;;5016451;28;20447;-90
2022/04/30 02:11:42;;;;;;;8.60;5.10;;;8.70;99.90;;;;;;4998962;28;20442;-90
2022/04/30 02:14:11;;;;;;;7.93;4.63;;;8.60;99.90;;;;;;5015899;28;20514;-90
2022/04/30 02:16:40;;;;;;;11.20;5.63;;;8.60;99.90;;;;;;5017572;28;20412;-90
2022/04/30 02:19:08;;;;;;;8.87;5.20;;;8.60;99.90;;;;;;5017335;28;20416;-90
2022/04/30 02:21:34;;;;;;;7.57;5.20;;;8.50;99.90;;;;;;5017110;28;20420;-90
2022/04/30 02:24:01;;;;;;;7.90;4.50;;;8.50;99.90;;;;;;5016492;28;20563;-90
2022/04/30 02:26:27;;;;;;;8.67;4.83;;;8.40;99.90;;;;;;5017278;28;20519;-90
2022/04/30 02:28:57;;;;;;;9.70;5.70;;;8.40;99.90;;;;;;5017007;28;20423;-90
2022/04/30 02:31:27;;;;;;;8.60;5.40;;;8.40;99.90;;;;;;5016975;28;20424;-90
2022/04/30 02:33:56;;;;;;;8.50;5.63;;;8.30;99.90;;;;;;5016208;28;20444;-91
2022/04/30 02:36:26;;;;;;;5.70;3.67;;;8.30;99.90;;;;;;5017206;28;20430;-90
2022/04/30 02:38:56;;;;;;;8.10;5.87;;;8.30;99.90;;;;;;5018047;28;20434;-90
2022/04/30 02:41:23;;;;;;;9.97;4.90;;;8.20;99.90;;;;;;5015851;28;20439;-90
2022/04/30 02:43:52;;;;;;;9.80;4.53;;;8.10;99.90;;;;;;5016763;28;20467;-90
2022/04/30 02:46:20;;;;;;;9.87;5.30;;;8.10;99.90;;;;;;5015341;28;20416;-90
2022/04/30 02:48:47;;;;;;;6.93;4.90;;;8.00;99.90;;;;;;5016215;28;20427;-90
2022/04/30 02:51:15;;;;;;;8.73;5.30;;;8.00;99.90;;;;;;5017369;28;20919;-90
2022/04/30 02:53:42;;;;;;;6.73;4.50;;;7.90;99.90;;;;;;5017086;28;20448;-90
2022/04/30 02:56:11;;;;;;;7.40;4.73;;;7.90;99.90;;;;;;5016889;28;20424;-90
2022/04/30 03:01:21;;;;;;;8.10;4.80;;;7.90;99.90;;;;;;5018125;28;20481;-90
2022/04/30 03:03:48;;;;;;;7.43;4.43;;;7.90;99.90;;;;;;5017605;28;20466;-90
2022/04/30 03:06:15;;;;;;;10.40;4.90;;;7.90;99.90;;;;;;5017050;28;20246;-90
2022/04/30 03:08:43;;;;;;;6.90;5.20;;;7.80;99.90;;;;;;5018316;28;20420;-90
2022/04/30 03:11:09;;;;;;;7.77;4.90;;;7.80;99.90;;;;;;5017514;28;20471;-90
2022/04/30 03:13:36;;;;;;;8.23;5.10;;;7.80;99.90;;;;;;5017560;28;20447;-90
2022/04/30 03:21:47;;;;;;;9.50;5.50;;;7.70;99.90;;;;;;5022628;28;20993;-90
2022/04/30 03:24:18;;;;;;;9.73;5.60;;;7.70;99.90;;;;;;5020510;28;20466;-90
2022/04/30 03:26:48;;;;;;;6.23;4.77;;;7.70;99.90;;;;;;5020176;28;20415;-90
2022/04/30 03:29:15;;;;;;;10.20;4.77;;;7.70;99.90;;;;;;5020576;28;20962;-90
2022/04/30 03:31:41;;;;;;;7.57;4.73;;;7.70;99.90;;;;;;5020137;28;20525;-90
2022/04/30 03:34:12;;;;;;;6.80;4.83;;;7.70;99.90;;;;;;5020792;28;20790;-90
2022/04/30 03:36:38;;;;;;;11.67;5.50;;;7.70;99.90;;;;;;5020509;28;20946;-90
2022/04/30 03:39:05;;;;;;;11.87;5.47;;;7.70;99.90;;;;;;5020930;28;20434;-90
2022/04/30 03:41:31;;;;;;;6.73;4.40;;;7.60;99.90;;;;;;5020595;28;20458;-89
2022/04/30 03:43:56;;;;;;;10.93;4.90;;;7.60;99.90;;;;;;5021013;28;20471;-90
2022/04/30 03:46:22;;;;;;;10.90;4.43;;;7.60;99.90;;;;;;5018926;28;20351;-91
2022/04/30 03:48:53;;;;;;;7.27;4.37;;;7.60;99.90;;;;;;5020155;28;20181;-90
2022/04/30 03:51:22;;;;;;;5.90;4.03;;;7.60;99.90;;;;;;5020011;28;20210;-90
2022/04/30 03:53:49;;;;;;;10.20;5.37;;;7.60;99.90;;;;;;5019982;28;20814;-90
2022/04/30 03:56:17;;;;;;;6.30;4.57;;;7.60;99.90;;;;;;5020152;28;20427;-90
2022/04/30 03:58:44;;;;;;;8.60;5.13;;;7.50;99.90;;;;;;5019659;28;20439;-90
2022/04/30 04:01:11;;;;;;;6.77;4.40;;;7.50;99.90;;;;;;5018857;28;20947;-90
2022/04/30 04:03:37;;;;;;;9.63;4.80;;;7.50;99.90;;;;;;5019563;28;20464;-90
2022/04/30 04:06:03;;;;;;;11.37;4.90;;;7.50;99.90;;;;;;5019617;28;20427;-90
2022/04/30 04:08:28;;;;;;;7.40;4.57;;;7.50;99.90;;;;;;5019777;28;20429;-90
2022/04/30 04:10:55;;;;;;;8.20;5.07;;;7.50;99.90;;;;;;5019471;28;20564;-90
2022/04/30 04:18:51;;;;;;;6.13;4.07;;;7.50;99.90;;;;;;5021899;28;20434;-90
2022/04/30 04:21:18;;;;;;;6.27;4.20;;;7.50;99.90;;;;;;5020364;28;20417;-90
2022/04/30 04:26:29;;;;;;;6.47;4.07;;;7.50;99.90;;;;;;5020252;28;20423;-90
2022/04/30 04:28:55;;;;;;;6.87;4.57;;;7.50;99.90;;;;;;5019020;28;20419;-90
2022/04/30 04:31:22;;;;;;;7.73;4.10;;;7.50;99.90;;;;;;5019664;28;20182;-91
2022/04/30 04:33:48;;;;;;;5.30;3.33;;;7.50;99.90;;;;;;5019636;28;20204;-90
2022/04/30 04:36:16;;;;;;;9.70;4.50;;;7.60;99.90;;;;;;5020069;28;20882;-90
2022/04/30 04:38:42;;;;;;;8.90;4.23;;;7.60;99.90;;;;;;5020162;28;20489;-90
2022/04/30 04:41:07;;;;;;;9.50;4.07;;;7.70;99.90;;;;;;5018684;28;20462;-90
2022/04/30 04:43:33;;;;;;;5.97;3.93;;;7.80;99.90;;;;;;5019342;28;20475;-90
2022/04/30 04:46:01;;;;;;;4.73;3.27;;;7.90;99.90;;;;;;5018381;28;20188;-91
2022/04/30 04:48:26;;;;;;;7.60;4.57;;;8.00;99.90;;;;;;5018068;28;20188;-91
2022/04/30 04:50:52;;;;;;;7.17;4.03;;;8.10;99.90;;;;;;5019048;28;20426;-90
2022/04/30 04:53:18;;;;;;;7.50;4.20;;;8.20;99.90;;;;;;5017919;28;20220;-90
2022/04/30 04:55:44;;;;;;;10.03;4.57;;;8.20;99.90;;;;;;5015954;28;20268;-90
2022/04/30 04:58:14;;;;;;;7.13;4.00;;;8.20;99.90;;;;;;5016911;28;20542;-90
2022/04/30 05:00:39;;;;;;;6.47;4.20;;;8.10;99.90;;;;;;5016998;28;20412;-90
2022/04/30 05:03:07;;;;;;;7.20;4.23;;;8.10;99.90;;;;;;5017092;28;20474;-90
2022/04/30 05:05:32;;;;;;;7.73;4.37;;;8.20;99.90;;;;;;5017468;28;20339;-90
2022/04/30 05:07:58;;;;;;;7.97;4.20;;;8.10;99.90;;;;;;5017659;28;20431;-90
2022/04/30 05:10:24;;;;;;;6.27;4.57;;;8.20;99.90;;;;;;5017680;28;20185;-90
2022/04/30 05:12:49;;;;;;;9.47;4.07;;;8.20;99.90;;;;;;5019393;28;20209;-90
2022/04/30 05:15:15;;;;;;;5.70;4.13;;;8.20;99.90;;;;;;5017378;28;20196;-90
2022/04/30 05:17:41;;;;;;;7.90;4.63;;;8.30;99.90;;;;;;5018133;28;20231;-89
2022/04/30 05:20:07;;;;;;;9.77;4.53;;;8.30;99.90;;;;;;5018038;28;20220;-90
2022/04/30 05:22:33;;;;;;;6.90;4.37;;;8.40;99.90;;;;;;5017034;28;20208;-89
2022/04/30 05:24:59;;;;;;;7.63;4.33;;;8.40;99.90;;;;;;5017141;28;20471;-90
2022/04/30 05:27:24;;;;;;;7.63;4.37;;;8.30;99.90;;;;;;5016465;28;20238;-90
2022/04/30 05:29:50;;;;;;;8.17;3.80;;;8.30;99.90;;;;;;5015980;28;20427;-90
2022/04/30 05:32:16;;;;;;;7.00;4.47;;;8.40;99.90;;;;;;5015321;28;20200;-90
2022/04/30 05:34:42;;;;;;;6.07;4.67;;;8.30;99.90;;;;;;5015372;28;20187;-90
2022/04/30 05:37:07;;;;;;;7.43;4.33;;;8.30;99.90;;;;;;5015010;28;20223;-90
2022/04/30 05:39:33;;;;;;;6.77;4.10;;;8.30;99.90;;;;;;5014677;28;20184;-90
2022/04/30 05:41:59;;;;;;;6.13;4.17;;;8.30;99.90;;;;;;5014574;28;20557;-90
2022/04/30 05:44:25;;;;;;;10.23;5.33;;;8.30;99.90;;;;;;5014141;28;20204;-90
2022/04/30 05:46:50;;;;;;;7.00;4.20;;;8.20;99.90;;;;;;5014167;28;20211;-90
2022/04/30 05:49:16;;;;;;;9.50;4.83;;;8.20;99.90;;;;;;5013596;28;20188;-90
2022/04/30 05:51:42;;;;;;;8.30;5.27;;;8.30;99.90;;;;;;5013642;28;20562;-90
2022/04/30 05:54:07;;;;;;;5.93;4.60;;;8.30;99.90;;;;;;5013673;28;20278;-90
2022/04/30 05:56:34;;;;;;;6.80;4.30;;;8.30;99.90;;;;;;5013374;28;20740;-89
2022/04/30 05:59:00;;;;;;;7.33;4.20;;;8.30;99.90;;;;;;5013896;28;20188;-90
2022/04/30 06:01:25;;;;;;;7.23;4.77;;;8.40;99.90;;;;;;5013035;28;20800;-89
2022/04/30 06:03:52;;;;;;;6.90;3.50;;;8.50;99.90;;;;;;5013002;28;20205;-90
2022/04/30 06:06:20;;;;;;;6.33;4.93;;;8.60;99.90;;;;;;5013410;28;20206;-90
2022/04/30 06:08:47;;;;;;;7.93;4.67;;;8.60;99.90;;;;;;5015243;28;20778;-90
2022/04/30 06:11:13;;;;;;;9.60;5.40;;;8.80;99.90;;;;;;5012868;28;20527;-89
2022/04/30 06:13:39;;;;;;;8.10;4.63;;;8.90;99.90;;;;;;5013582;28;20502;-90
2022/04/30 06:16:05;;;;;;;6.97;4.20;;;9.10;99.90;;;;;;5012817;28;20828;-90
2022/04/30 06:18:30;;;;;;;7.50;4.30;;;9.20;99.90;;;;;;5011798;28;20185;-89
2022/04/30 06:20:56;;;;;;;8.93;4.53;;;9.30;99.90;;;;;;5011092;28;20795;-89
2022/04/30 06:23:22;;;;;;;7.70;4.20;;;9.40;99.90;;;;;;5011335;28;20205;-90
2022/04/30 06:25:47;;;;;;;6.23;4.87;;;9.40;99.90;;;;;;5011132;28;20562;-89
2022/04/30 06:28:14;;;;;;;6.40;4.17;;;9.60;99.90;;;;;;5010967;28;20188;-89
2022/04/30 06:30:41;;;;;;;6.27;4.30;;;9.60;99.90;;;;;;5067437;22;20226;-78
2022/04/30 06:33:08;;;;;;;5.53;3.83;;;9.70;99.90;;;;;;5070997;28;20417;-78
2022/04/30 06:35:35;;;;;;;7.60;4.50;;;10.00;99.90;;;;;;5072394;28;20413;-77
2022/04/30 06:38:01;;;;;;;8.00;4.17;;;10.20;99.90;;;;;;5072216;28;20421;-77
2022/04/30 06:40:27;;;;;;;5.70;4.17;;;10.50;99.90;;;;;;5072059;28;20931;-78
2022/04/30 06:42:53;;;;;;;6.70;4.17;;;10.60;99.90;;;;;;5088206;28;20427;-77
2022/04/30 06:45:19;;;;;;;11.93;4.33;;;10.70;99.90;;;;;;5088963;28;20476;-78
2022/04/30 06:47:45;;;;;;;5.90;4.00;;;10.80;99.90;;;;;;5088972;28;20425;-77
2022/04/30 06:50:11;;;;;;;7.80;4.40;;;10.60;99.90;;;;;;5089330;28;20985;-76
2022/04/30 06:58:08;;;;;;;7.87;4.30;;;10.30;99.90;;;;;;5077797;28;20428;-78
2022/04/30 07:03:29;;;;;;;11.33;5.03;;;9.90;99.90;;;;;;5068341;28;20414;-77
2022/04/30 07:06:06;;;;;;;8.37;4.33;;;9.90;99.90;;;;;;5076003;28;20437;-78
2022/04/30 07:08:34;;;;;;;6.23;4.07;;;9.80;99.90;;;;;;5075631;28;20516;-77
2022/04/30 07:11:03;;;;;;;10.07;3.80;;;10.00;99.90;;;;;;5075819;28;20463;-77
2022/04/30 07:13:32;;;;;;;9.20;4.90;;;10.10;99.90;;;;;;5075985;28;20421;-77
2022/04/30 07:15:58;;;;;;;6.27;3.57;;;10.10;99.90;;;;;;5075840;28;20454;-78
2022/04/30 07:18:24;;;;;;;5.83;3.83;;;10.50;99.90;;;;;;5076924;28;20417;-79
2022/04/30 07:20:51;;;;;;;7.10;4.40;;;10.80;99.90;;;;;;5077399;28;20448;-80
2022/04/30 07:23:17;;;;;;;9.20;4.50;;;11.00;99.90;;;;;;5094384;28;20415;-79
2022/04/30 07:25:43;;;;;;;6.83;3.80;;;11.10;99.90;;;;;;5075390;28;20424;-79
2022/04/30 07:28:09;;;;;;;6.30;3.97;;;11.30;99.90;;;;;;5092341;28;20821;-79
2022/04/30 07:30:34;;;;;;;6.57;4.10;;;11.60;99.90;;;;;;5093416;28;20201;-79
2022/04/30 07:33:00;;;;;;;6.60;4.50;;;11.50;99.90;;;;;;5094184;28;20179;-79
2022/04/30 07:35:26;;;;;;;4.77;3.50;;;11.50;99.90;;;;;;5069141;28;20198;-80
2022/04/30 07:37:52;;;;;;;6.50;3.77;;;11.60;99.90;;;;;;5077532;28;20446;-79
2022/04/30 07:40:18;;;;;;;5.70;3.70;;;11.70;99.90;;;;;;5088053;28;20948;-78
2022/04/30 07:42:44;;;;;;;6.30;4.57;;;11.70;99.90;;;;;;5076606;28;20270;-78
2022/04/30 07:45:10;;;;;;;6.40;4.50;;;11.70;99.90;;;;;;5090315;28;20228;-78
2022/04/30 07:47:36;;;;;;;4.80;3.83;;;11.80;99.90;;;;;;5074065;28;20272;-79
2022/04/30 07:50:04;;;;;;;7.53;4.37;;;11.80;99.90;;;;;;5075995;28;20417;-79
2022/04/30 07:52:31;;;;;;;6.63;4.80;;;12.00;99.90;;;;;;5077702;28;20961;-78
2022/04/30 07:54:57;;;;;;;8.97;4.00;;;12.40;99.90;;;;;;5077167;28;20424;-78
2022/04/30 07:57:23;;;;;;;8.10;4.00;;;12.70;99.90;;;;;;5076906;28;20826;-79
2022/04/30 07:59:49;;;;;;;5.30;4.23;;;12.30;99.90;;;;;;5078256;28;20205;-78
2022/04/30 08:02:14;;;;;;;6.10;3.60;;;12.10;99.90;;;;;;5075869;28;20637;-77
2022/04/30 08:04:40;;;;;;;6.83;4.30;;;12.10;99.90;;;;;;5075563;28;20557;-78
2022/04/30 08:07:06;;;;;;;6.70;4.37;;;12.10;99.90;;;;;;5076321;28;20775;-79
2022/04/30 08:09:31;;;;;;;7.67;4.30;;;12.00;99.90;;;;;;5079276;28;20175;-79
2022/04/30 08:11:57;;;;;;;8.57;4.50;;;12.00;99.90;;;;;;5074667;28;20283;-79
2022/04/30 08:14:23;;;;;;;5.90;4.20;;;12.90;99.90;;;;;;5075423;28;20621;-79
2022/04/30 08:16:49;;;;;;;5.80;3.33;;;13.70;99.90;;;;;;5077753;28;20678;-79
2022/04/30 08:19:15;;;;;;;6.30;4.40;;;14.30;99.90;;;;;;5077979;28;20183;-78
2022/04/30 08:21:42;;;;;;;5.93;4.23;;;14.90;99.90;;;;;;5076683;28;20232;-78
2022/04/30 08:24:08;;;;;;;7.43;4.80;;;14.40;99.90;;;;;;5077119;28;20453;-79
2022/04/30 08:26:33;;;;;;;4.60;3.80;;;13.80;99.90;;;;;;5073015;28;20458;-79
2022/04/30 08:28:59;;;;;;;5.60;3.83;;;13.30;99.90;;;;;;5077917;28;20183;-79
2022/04/30 08:31:25;;;;;;;6.33;4.23;;;12.60;99.90;;;;;;5076931;28;20187;-78
2022/04/30 08:33:52;;;;;;;5.03;4.03;;;12.50;99.90;;;;;;5072119;28;20251;-79
2022/04/30 08:36:18;;;;;;;5.10;3.80;;;12.60;99.90;;;;;;5077819;28;20198;-79
2022/04/30 08:38:44;;;;;;;7.50;4.30;;;12.50;99.90;;;;;;5076292;28;20538;-79
2022/04/30 08:41:14;;;;;;;7.67;4.30;;;12.50;99.90;;;;;;5075856;28;20688;-79
2022/04/30 08:43:40;;;;;;;6.50;4.43;;;12.60;99.90;;;;;;5078785;28;20202;-78
2022/04/30 08:46:06;;;;;;;5.70;3.87;;;13.30;99.90;;;;;;5077563;28;20558;-80
2022/04/30 08:48:32;;;;;;;5.20;3.50;;;14.00;99.90;;;;;;5063235;28;20477;-79
2022/04/30 08:50:58;;;;;;;8.20;3.67;;;14.30;99.90;;;;;;5075025;28;20187;-79
2022/04/30 08:53:27;;;;;;;6.90;3.80;;;13.80;99.90;;;;;;5072295;28;20504;-79
2022/04/30 08:55:53;;;;;;;4.40;3.23;;;14.80;99.90;;;;;;5074972;28;20468;-77
2022/04/30 08:58:19;;;;;;;4.90;3.60;;;16.50;99.90;;;;;;5070441;28;20462;-80
2022/04/30 09:00:47;;;;;;;5.23;4.20;;;17.20;99.90;;;;;;5072500;28;20186;-79
2022/04/30 09:03:19;;;;;;;6.10;2.70;;;17.20;99.90;;;;;;5076737;28;20179;-79
2022/04/30 09:05:45;;;;;;;4.40;3.10;;;19.60;99.90;;;;;;5076979;28;20834;-79
2022/04/30 09:08:11;;;;;;;5.90;2.90;;;22.30;97.40;;;;;;5077125;28;20420;-79
2022/04/30 09:10:38;;;;;;;4.40;2.77;;;22.00;77.20;;;;;;5092218;28;20409;-79
2022/04/30 09:13:14;;;;;;;3.83;2.37;;;21.90;70.10;;;;;;5074290;28;20187;-80
2022/04/30 09:15:44;;;;;;;4.00;2.40;;;21.40;71.50;;;;;;5075845;28;20523;-79
2022/04/30 09:18:11;;;;;;;4.53;3.10;;;20.80;68.40;;;;;;5074976;28;20440;-79
2022/04/30 09:20:48;;;;;;;4.07;3.07;;;19.50;72.00;;;;;;5075137;28;20788;-79
2022/04/30 09:23:24;;;;;;;3.70;2.90;;;20.90;75.50;;;;;;5075978;28;20429;-79
2022/04/30 09:25:53;;;;;;;5.67;2.23;;;24.30;67.20;;;;;;5076411;28;20483;-80
2022/04/30 09:28:30;;;;;;;4.40;2.83;;;25.10;65.40;;;;;;5076150;28;20845;-79
2022/04/30 09:31:09;;;;;;;3.60;2.60;;;24.90;56.20;;;;;;5075954;28;20508;-79
2022/04/30 09:33:36;;;;;;;3.73;2.53;;;25.70;55.90;;;;;;5089167;28;20829;-80
2022/04/30 09:38:49;;;;;;;4.63;3.03;;;24.20;52.80;;;;;;5076480;28;20910;-79
2022/04/30 09:41:22;;;;;;;3.70;2.27;;;23.10;52.70;;;;;;5075715;28;20513;-79
2022/04/30 09:43:59;;;;;;;4.73;2.83;;;23.80;52.60;;;;;;5075236;28;20465;-79
2022/04/30 09:46:26;;;;;;;4.20;2.77;;;26.70;49.80;;;;;;5074736;28;20449;-79
2022/04/30 09:54:22;;;;;;;5.73;3.47;;;26.90;44.50;;;;;;5070410;28;20470;-79
2022/04/30 09:56:51;;;;;;;4.47;3.60;;;25.60;42.40;;;;;;5073267;28;20437;-79
2022/04/30 09:59:19;;;;;;;5.00;3.00;;;25.10;45.50;;;;;;5072290;28;20415;-79
2022/04/30 10:01:48;;;;;;;4.30;3.10;;;26.60;46.10;;;;;;5073275;28;20417;-79
2022/04/30 10:04:16;;;;;;;4.73;3.47;;;28.20;44.50;;;;;;5072959;28;20472;-79
2022/04/30 10:06:49;;;;;;;4.43;3.27;;;28.80;41.90;;;;;;5073821;28;20947;-79
2022/04/30 10:09:18;;;;;;;4.70;3.00;;;29.90;42.00;;;;;;5073645;28;21026;-79
2022/04/30 10:12:11;;;;;;;4.60;3.33;;;31.20;41.00;;;;;;5074086;28;20421;-79
2022/04/30 10:15:03;;;;;;;6.40;3.70;;;30.70;36.40;;;;;;5073137;28;20559;-78
2022/04/30 10:17:33;;;;;;;5.37;3.47;;;29.40;36.40;;;;;;5076170;28;20437;-79
2022/04/30 10:20:39;;;;;;;5.63;3.77;;;28.40;38.30;;;;;;5075858;28;20943;-79
2022/04/30 10:22:59;;;;;;;4.03;3.00;;;27.10;37.10;;;;;;5075134;28;20978;-79
2022/04/30 10:25:46;;;;;;;4.77;3.50;;;25.90;39.20;;;;;;5074456;28;20472;-79
2022/04/30 10:28:21;;;;;;;4.00;3.17;;;24.80;40.60;;;;;;5074914;28;20413;-79
2022/04/30 10:31:04;;;;;;;3.93;3.00;;;25.00;41.30;;;;;;5074957;28;20832;-79
2022/04/30 10:33:31;;;;;;;3.87;2.73;;;24.60;39.80;;;;;;5075112;28;20417;-79
2022/04/30 10:36:08;;;;;;;5.07;3.93;;;23.60;40.70;;;;;;5074558;28;20563;-79
2022/04/30 10:38:34;;;;;;;5.10;4.10;;;24.90;42.00;;;;;;5074729;28;20475;-79
2022/04/30 10:41:02;;;;;;;4.30;3.27;;;24.00;40.90;;;;;;5074393;28;20771;-79
2022/04/30 10:43:34;;;;;;;4.53;3.80;;;23.60;42.20;;;;;;5074544;28;21003;-79
2022/04/30 10:46:02;;;;;;;4.27;3.40;;;23.30;42.50;;;;;;5073902;28;20441;-79
2022/04/30 10:48:32;;;;;;;4.90;3.80;;;22.60;43.80;;;;;;5074090;28;20421;-79
2022/04/30 10:51:08;;;;;;;5.07;3.50;;;23.10;44.70;;;;;;5073187;28;20418;-79
2022/04/30 10:53:39;;;;;;;7.00;4.37;;;22.70;45.50;;;;;;5073335;28;20923;-79
2022/04/30 10:56:05;;;;;;;5.90;4.43;;;22.70;47.00;;;;;;5073609;28;20877;-79
2022/04/30 10:58:32;;;;;;;4.17;3.77;;;23.10;46.10;;;;;;5073771;28;20425;-79
2022/04/30 11:01:09;;;;;;;5.00;4.17;;;23.30;45.40;;;;;;5072473;28;20861;-79
2022/04/30 11:03:35;;;;;;;4.10;3.20;;;22.30;45.50;;;;;;5072946;28;20417;-79
2022/04/30 11:06:00;;;;;;;6.63;4.47;;;21.50;44.20;;;;;;5072841;28;20491;-79
2022/04/30 11:08:26;;;;;;;4.70;3.43;;;21.10;46.60;;;;;;5073499;28;20650;-79
2022/04/30 11:10:54;;;;;;;4.77;4.13;;;21.70;47.80;;;;;;5072086;28;20654;-79
2022/04/30 11:13:21;;;;;;;5.20;3.37;;;22.00;45.70;;;;;;5073189;28;20504;-79
2022/04/30 11:15:47;;;;;;;5.20;4.03;;;22.10;45.80;;;;;;5072738;28;20437;-79
2022/04/30 11:18:17;;;;;;;4.93;4.03;;;22.50;46.40;;;;;;5072771;28;20850;-79
2022/04/30 11:20:43;;;;;;;4.20;3.17;;;22.70;45.40;;;;;;5072394;28;20471;-79
2022/04/30 11:23:08;;;;;;;3.87;3.43;;;22.90;45.80;;;;;;5072454;28;20936;-79
2022/04/30 11:25:36;;;;;;;5.63;3.77;;;23.40;48.20;;;;;;5072682;28;20301;-79
2022/04/30 11:28:09;;;;;;;4.00;3.60;;;24.20;46.00;;;;;;5072311;28;20228;-79
2022/04/30 11:30:42;;;;;;;6.07;4.53;;;23.90;43.40;;;;;;5071990;28;20499;-78
2022/04/30 11:33:09;;;;;;;4.50;3.50;;;24.70;45.90;;;;;;5072154;28;20421;-78
2022/04/30 11:35:35;;;;;;;4.83;3.60;;;25.50;44.00;;;;;;5071946;28;20424;-79
2022/04/30 11:38:01;;;;;;;4.10;3.20;;;24.40;42.40;;;;;;5074509;28;20429;-78
2022/04/30 11:40:27;;;;;;;4.87;3.60;;;23.20;42.90;;;;;;5075066;28;20421;-79
2022/04/30 11:43:04;;;;;;;5.90;3.90;;;22.60;43.30;;;;;;5075377;28;20447;-78
2022/04/30 11:45:31;;;;;;;4.47;3.30;;;22.70;43.60;;;;;;5075088;28;20214;-79
2022/04/30 11:48:01;;;;;;;3.57;3.03;;;23.20;44.40;;;;;;5075155;28;20421;-78
2022/04/30 11:50:28;;;;;;;4.40;3.40;;;24.10;45.50;;;;;;5074171;28;20429;-79
2022/04/30 11:52:54;;;;;;;4.87;3.43;;;22.60;42.50;;;;;;5074684;28;20425;-78
2022/04/30 11:55:21;;;;;;;5.57;3.27;;;21.30;44.20;;;;;;5074784;28;20855;-79
2022/04/30 11:57:48;;;;;;;4.97;3.70;;;20.50;45.60;;;;;;5074192;28;20452;-78
2022/04/30 12:00:15;;;;;;;5.37;3.70;;;19.70;46.10;;;;;;5074163;28;20781;-77
2022/04/30 12:02:44;;;;;;;5.83;3.77;;;19.50;48.00;;;;;;5074118;28;20808;-77
2022/04/30 12:05:10;;;;;;;5.63;3.47;;;20.70;50.50;;;;;;5074003;28;20518;-78
2022/04/30 12:07:44;;;;;;;4.00;2.90;;;23.20;50.10;;;;;;5074088;28;20807;-78
2022/04/30 12:10:23;;;;;;;4.60;3.43;;;23.20;44.60;;;;;;5074492;28;20845;-80
2022/04/30 12:12:51;;;;;;;5.00;3.60;;;22.50;45.20;;;;;;5069433;28;20479;-78
2022/04/30 12:15:20;;;;;;;4.00;3.00;;;21.30;45.80;;;;;;5064631;28;20437;-79
2022/04/30 12:24:40;;;;;;;5.13;3.80;;;21.90;45.60;;;;;;5075164;28;20449;-78
2022/04/30 12:26:09;;;;;;;4.43;3.10;;;26.80;44.60;;;;;;5076033;28;20971;-79
2022/04/30 12:28:50;;;;;;;4.90;3.60;;;27.20;43.90;;;;;;5073974;28;20409;-79
2022/04/30 12:31:16;;;;;;;5.40;3.63;;;29.80;39.60;;;;;;5073571;28;20515;-75
2022/04/30 12:33:48;;;;;;;6.00;3.60;;;29.40;37.60;;;;;;5072395;28;20417;-75
2022/04/30 12:36:15;;;;;;;4.53;3.50;;;27.80;36.70;;;;;;5072046;28;20441;-75
2022/04/30 12:38:55;;;;;;;5.80;3.50;;;27.20;36.80;;;;;;5072453;28;20414;-75
2022/04/30 12:41:23;;;;;;;5.43;3.63;;;26.10;39.90;;;;;;5055492;28;20976;-74
2022/04/30 12:43:53;;;;;;;4.20;3.20;;;25.50;40.80;;;;;;5072329;28;20469;-74
2022/04/30 12:46:23;;;;;;;6.00;3.43;;;25.40;41.80;;;;;;5072289;28;20465;-75
2022/04/30 12:48:50;;;;;;;7.63;4.20;;;25.50;42.70;;;;;;5072153;28;20468;-75
2022/04/30 12:54:06;;;;;;;4.70;4.17;;;24.30;41.50;;;;;;5100816;22;20505;-85
2022/04/30 13:00:11;;;;;;;4.87;3.90;;;24.60;43.30;;;;;;5040463;28;20426;-83
2022/04/30 13:03:37;;;;;;;4.33;3.50;;;25.30;42.50;;;;;;5052237;28;20454;-83
2022/04/30 13:06:06;;;;;;;3.67;2.73;;;24.60;41.20;;;;;;5015499;28;20435;-83
2022/04/30 13:14:17;;;;;;;5.40;3.53;;;23.10;42.20;;;;;;5053433;28;20909;-80
2022/04/30 13:17:16;;;;;;;5.30;4.20;;;22.10;43.90;;;;;;5053101;28;20430;-82
2022/04/30 13:19:41;;;;;;;4.77;3.80;;;20.80;44.20;;;;;;5052524;28;20422;-83
2022/04/30 13:22:07;;;;;;;4.13;3.63;;;20.50;46.60;;;;;;5051323;28;20460;-83
2022/04/30 13:24:50;;;;;;;5.13;3.80;;;20.60;48.40;;;;;;5051269;28;20204;-83
2022/04/30 13:27:18;;;;;;;6.20;3.40;;;20.60;48.90;;;;;;5051383;28;20536;-82
2022/04/30 13:29:44;;;;;;;3.83;3.30;;;20.80;48.40;;;;;;5051479;28;20418;-81
2022/04/30 13:32:10;;;;;;;5.70;3.40;;;21.90;48.00;;;;;;5051319;28;20491;-82
2022/04/30 13:34:39;;;;;;;5.37;3.90;;;23.70;44.90;;;;;;5051851;28;20226;-83
2022/04/30 13:37:04;;;;;;;4.20;3.80;;;25.10;42.40;;;;;;5050920;28;20458;-83
2022/04/30 13:39:31;;;;;;;4.27;3.37;;;27.30;41.50;;;;;;5051813;28;20422;-83
2022/04/30 13:41:56;;;;;;;4.73;3.50;;;27.40;39.60;;;;;;5050990;28;20256;-80
2022/04/30 13:44:22;;;;;;;3.90;2.93;;;26.30;39.40;;;;;;5052810;28;20537;-80
2022/04/30 13:46:47;;;;;;;4.23;3.50;;;25.40;40.80;;;;;;5053713;28;20215;-81
2022/04/30 13:49:13;;;;;;;4.50;3.37;;;23.20;40.50;;;;;;5060030;28;20176;-81
2022/04/30 13:51:39;;;;;;;5.23;3.37;;;22.50;43.90;;;;;;5059976;28;20195;-81
2022/04/30 13:54:04;;;;;;;4.70;4.00;;;22.70;45.90;;;;;;5059314;28;20685;-82
2022/04/30 13:56:36;;;;;;;5.10;3.77;;;22.40;43.90;;;;;;5058586;28;20238;-81
2022/04/30 13:59:04;;;;;;;4.30;3.20;;;21.60;43.80;;;;;;5058069;28;20207;-83
2022/04/30 14:01:30;;;;;;;4.73;3.67;;;21.00;45.50;;;;;;5055700;28;20426;-83
2022/04/30 14:03:56;;;;;;;4.60;4.03;;;21.00;46.20;;;;;;5060548;28;20504;-85
2022/04/30 14:06:21;;;;;;;4.93;4.40;;;20.90;46.90;;;;;;5058377;28;20262;-84
2022/04/30 14:08:47;;;;;;;4.93;3.37;;;20.50;45.40;;;;;;5043576;28;20173;-85
2022/04/30 14:11:13;;;;;;;3.63;3.27;;;20.50;46.00;;;;;;5037572;28;20173;-85
2022/04/30 14:16:23;;;;;;;4.23;2.87;;;20.20;45.80;;;;;;5039108;28;20207;-79
2022/04/30 14:18:49;;;;;;;5.60;3.77;;;20.20;46.50;;;;;;5037005;28;20415;-79
2022/04/30 14:21:15;;;;;;;6.80;4.10;;;19.90;46.70;;;;;;5043212;28;20204;-79
2022/04/30 14:23:42;;;;;;;4.23;3.13;;;20.30;46.40;;;;;;5044689;28;20442;-79
2022/04/30 14:26:11;;;;;;;3.93;3.20;;;22.70;47.90;;;;;;5046602;28;20465;-79
2022/04/30 14:28:37;;;;;;;5.00;3.77;;;23.50;44.50;;;;;;5044731;28;20430;-78
2022/04/30 14:31:05;;;;;;;5.53;3.63;;;23.00;42.90;;;;;;5041803;28;20427;-78
2022/04/30 14:33:31;;;;;;;4.60;3.30;;;28.00;39.70;;;;;;5043842;28;20415;-80
2022/04/30 14:35:59;;;;;;;5.17;3.17;;;29.00;39.00;;;;;;5042886;28;20443;-78
2022/04/30 14:38:25;;;;;;;4.20;3.50;;;29.90;36.90;;;;;;5030564;28;20910;-77
2022/04/30 14:40:51;;;;;;;4.20;3.77;;;29.90;33.80;;;;;;5030430;28;20428;-77
2022/04/30 14:43:17;;;;;;;4.40;3.10;;;30.20;32.60;;;;;;5030627;28;20992;-77
2022/04/30 14:45:45;;;;;;;5.43;3.07;;;31.50;32.60;;;;;;5030393;28;20258;-78
2022/04/30 14:48:13;;;;;;;6.03;3.37;;;31.40;32.80;;;;;;5030572;28;20415;-77
2022/04/30 14:50:39;;;;;;;4.20;3.03;;;29.10;32.50;;;;;;5030421;28;20430;-77
2022/04/30 14:53:05;;;;;;;4.30;3.10;;;26.60;32.70;;;;;;5030986;28;20422;-76
2022/04/30 14:55:31;;;;;;;4.00;3.57;;;25.20;34.10;;;;;;5030246;28;20789;-77
2022/04/30 14:57:57;;;;;;;4.60;3.50;;;24.30;35.80;;;;;;5030460;28;20492;-77
2022/04/30 15:00:23;;;;;;;4.80;3.10;;;23.50;37.60;;;;;;5030430;28;20183;-77
2022/04/30 15:02:49;;;;;;;4.57;2.70;;;22.70;38.90;;;;;;5031603;28;20493;-77
2022/04/30 15:05:15;;;;;;;3.77;2.60;;;22.20;40.50;;;;;;5030279;28;20499;-77
2022/04/30 15:07:41;;;;;;;4.00;2.90;;;22.00;41.50;;;;;;5030323;28;20463;-79
2022/04/30 15:10:07;;;;;;;4.43;3.00;;;21.50;41.00;;;;;;5044318;28;20184;-79
2022/04/30 15:12:37;;;;;;;3.73;2.73;;;20.80;41.30;;;;;;5045232;28;20226;-79
2022/04/30 15:15:04;;;;;;;4.57;3.20;;;20.90;41.90;;;;;;5045906;28;20438;-79
2022/04/30 15:17:29;;;;;;;4.17;3.30;;;23.50;42.50;;;;;;5048362;28;20481;-79
2022/04/30 15:19:55;;;;;;;3.70;2.60;;;25.90;38.70;;;;;;5047664;28;20529;-80
2022/04/30 15:22:21;;;;;;;3.47;2.53;;;27.30;36.20;;;;;;5046930;28;20275;-79
2022/04/30 15:24:47;;;;;;;4.37;2.90;;;26.70;37.50;;;;;;5048621;28;20211;-79
2022/04/30 15:27:13;;;;;;;4.13;2.63;;;26.00;37.00;;;;;;5049295;28;20200;-79